createdAt,value
2022-11-05T00:01:08.808Z,76.70
2022-11-05T00:03:55.539Z,83.60
2022-11-05T00:06:42.743Z,81.90
2022-11-05T00:09:43.640Z,84.40
2022-11-05T00:12:32.981Z,81.80
2022-11-05T00:15:19.482Z,79.70
2022-11-05T00:17:47.495Z,76.50
2022-11-05T00:20:15.787Z,81.40
2022-11-05T00:23:02.437Z,82.10
2022-11-05T00:25:31.259Z,77.80
2022-11-05T00:28:03.230Z,71.50
2022-11-05T00:30:31.200Z,74.10
2022-11-05T00:33:04.797Z,66.60
2022-11-05T00:35:32.747Z,74.40
2022-11-05T00:38:00.818Z,65.70
2022-11-05T00:40:28.944Z,67.60
2022-11-05T00:43:15.560Z,63.60
2022-11-05T00:45:43.559Z,68.30
2022-11-05T00:48:30.092Z,72.30
2022-11-05T00:50:58.113Z,74.90
2022-11-05T00:53:26.084Z,84.60
2022-11-05T00:55:54.647Z,74.40
2022-11-05T00:58:23.086Z,70.90
2022-11-05T01:00:53.451Z,71.60
2022-11-05T01:03:25.149Z,74.20
2022-11-05T01:05:58.797Z,73.70
2022-11-05T01:08:28.044Z,80.60
2022-11-05T01:10:58.761Z,69.60
2022-11-05T01:13:30.301Z,62.90
2022-11-05T01:15:58.284Z,65.20
2022-11-05T01:18:26.296Z,62.80
2022-11-05T01:20:54.270Z,62.80
2022-11-05T01:23:22.382Z,63.50
2022-11-05T01:25:50.304Z,62.90
2022-11-05T01:28:18.344Z,65.20
2022-11-05T01:30:46.359Z,60.90
2022-11-05T01:33:14.698Z,64.90
2022-11-05T01:35:42.657Z,62.90
2022-11-05T01:38:11.152Z,63.00
2022-11-05T01:40:42.901Z,63.90
2022-11-05T01:43:17.251Z,69.80
2022-11-05T01:45:49.636Z,68.90
2022-11-05T01:48:30.129Z,63.70
2022-11-05T01:51:05.408Z,71.80
2022-11-05T01:53:47.672Z,69.10
2022-11-05T01:56:29.005Z,58.50
2022-11-05T01:59:05.571Z,57.00
2022-11-05T02:01:33.860Z,57.50
2022-11-05T02:04:05.172Z,58.00
2022-11-05T02:06:37.439Z,56.40
2022-11-05T02:09:11.434Z,58.50
2022-11-05T02:11:39.446Z,73.60
2022-11-05T02:14:07.479Z,50.20
2022-11-05T02:17:06.298Z,56.50
2022-11-05T02:20:11.831Z,53.10
2022-11-05T02:22:42.881Z,52.60
2022-11-05T02:25:29.531Z,54.30
2022-11-05T02:28:25.048Z,55.40
2022-11-05T02:31:05.168Z,55.70
2022-11-05T02:33:36.043Z,55.40
2022-11-05T02:36:14.349Z,58.50
2022-11-05T02:39:00.739Z,60.90
2022-11-05T02:41:36.213Z,61.40
2022-11-05T02:44:14.477Z,58.80
2022-11-05T02:46:54.717Z,57.10
2022-11-05T02:49:35.272Z,64.30
2022-11-05T02:52:08.695Z,60.40
2022-11-05T02:54:39.842Z,65.20
2022-11-05T02:57:07.785Z,63.60
2022-11-05T02:59:35.760Z,59.60
2022-11-05T03:02:05.284Z,58.50
2022-11-05T03:04:33.478Z,58.30
2022-11-05T03:07:01.450Z,57.60
2022-11-05T03:10:07.375Z,58.00
2022-11-05T03:12:38.266Z,58.90
2022-11-05T03:15:24.705Z,61.20
2022-11-05T03:17:58.532Z,56.90
2022-11-05T03:20:37.395Z,61.80
2022-11-05T03:23:23.793Z,59.60
2022-11-05T03:25:59.283Z,64.80
2022-11-05T03:28:32.393Z,68.90
2022-11-05T03:31:04.043Z,70.50
2022-11-05T03:33:35.452Z,69.50
2022-11-05T03:36:16.891Z,73.50
2022-11-05T03:38:48.071Z,81.00
2022-11-05T03:41:17.812Z,83.00
2022-11-05T03:43:50.579Z,84.00
2022-11-05T03:46:24.420Z,92.70
2022-11-05T03:48:55.908Z,81.60
2022-11-05T03:51:46.191Z,75.10
2022-11-05T03:54:14.744Z,72.90
2022-11-05T03:57:09.407Z,76.70
2022-11-05T03:59:46.385Z,78.10
2022-11-05T04:02:16.901Z,86.10
2022-11-05T04:04:45.393Z,89.70
2022-11-05T04:07:32.229Z,85.40
2022-11-05T04:10:18.929Z,80.60
2022-11-05T04:13:05.289Z,82.80
2022-11-05T04:15:53.783Z,83.70
2022-11-05T04:18:22.398Z,73.60
2022-11-05T04:21:09.536Z,75.20
2022-11-05T04:23:55.953Z,71.90
2022-11-05T04:26:23.890Z,76.20
2022-11-05T04:29:11.943Z,69.20
2022-11-05T04:31:40.081Z,71.60
2022-11-05T04:34:08.802Z,70.20
2022-11-05T04:36:36.736Z,64.70
2022-11-05T04:39:04.689Z,67.20
2022-11-05T04:41:32.626Z,70.20
2022-11-05T04:44:00.627Z,75.40
2022-11-05T04:46:28.541Z,73.70
2022-11-05T04:48:56.477Z,77.40
2022-11-05T04:51:24.549Z,75.50
2022-11-05T04:53:52.423Z,74.70
2022-11-05T04:56:23.182Z,81.20
2022-11-05T04:58:51.775Z,73.60
2022-11-05T05:01:22.490Z,70.80
2022-11-05T05:03:51.810Z,71.80
2022-11-05T05:06:21.186Z,69.30
2022-11-05T05:08:50.814Z,70.90
2022-11-05T05:11:21.349Z,63.80
2022-11-05T05:13:49.454Z,66.30
2022-11-05T05:16:26.277Z,69.30
2022-11-05T05:18:54.600Z,72.70
2022-11-05T05:21:41.815Z,74.10
2022-11-05T05:24:21.243Z,72.60
2022-11-05T05:26:51.221Z,70.80
2022-11-05T05:29:19.240Z,80.30
2022-11-05T05:31:47.210Z,70.40
2022-11-05T05:34:15.269Z,66.50
2022-11-05T05:36:43.480Z,64.10
2022-11-05T05:39:11.554Z,66.80
2022-11-05T05:41:39.578Z,63.90
2022-11-05T05:44:07.549Z,67.50
2022-11-05T05:46:35.508Z,60.60
2022-11-05T05:49:09.427Z,60.90
2022-11-05T05:51:40.349Z,55.60
2022-11-05T05:54:08.333Z,55.80
2022-11-05T05:56:36.283Z,56.50
2022-11-05T05:59:05.968Z,57.50
2022-11-05T06:01:34.168Z,57.80
2022-11-05T06:04:02.597Z,53.50
2022-11-05T06:06:30.897Z,55.60
2022-11-05T06:08:58.775Z,55.30
2022-11-05T06:11:27.500Z,56.70
2022-11-05T06:13:55.519Z,49.80
2022-11-05T06:16:23.673Z,51.00
2022-11-05T06:18:51.669Z,50.40
2022-11-05T06:21:19.680Z,49.10
2022-11-05T06:23:49.169Z,49.00
2022-11-05T06:26:18.308Z,52.70
2022-11-05T06:28:47.084Z,48.60
2022-11-05T06:31:15.722Z,49.50
2022-11-05T06:33:44.006Z,44.90
2022-11-05T06:36:15.693Z,52.20
2022-11-05T06:38:43.849Z,47.50
2022-11-05T06:41:11.803Z,43.40
2022-11-05T06:43:40.103Z,49.70
2022-11-05T06:46:09.696Z,52.80
2022-11-05T06:48:38.100Z,50.30
2022-11-05T06:51:08.079Z,59.20
2022-11-05T06:53:36.618Z,54.90
2022-11-05T06:56:06.109Z,53.90
2022-11-05T06:58:34.640Z,55.30
2022-11-05T07:01:09.034Z,51.80
2022-11-05T07:03:38.071Z,64.50
2022-11-05T07:06:07.408Z,55.60
2022-11-05T07:08:37.671Z,61.90
2022-11-05T07:11:06.149Z,61.60
2022-11-05T07:13:34.179Z,66.00
2022-11-05T07:16:02.216Z,68.30
2022-11-05T07:18:30.245Z,68.80
2022-11-05T07:21:00.457Z,59.90
2022-11-05T07:23:28.546Z,62.30
2022-11-05T07:25:56.620Z,63.40
2022-11-05T07:28:24.520Z,60.30
2022-11-05T07:30:52.428Z,61.30
2022-11-05T07:33:20.555Z,68.50
2022-11-05T07:35:48.500Z,65.80
2022-11-05T07:38:17.129Z,67.60
2022-11-05T07:40:45.221Z,58.70
2022-11-05T07:43:13.481Z,58.90
2022-11-05T07:45:41.893Z,53.60
2022-11-05T07:48:09.962Z,57.40
2022-11-05T07:50:38.246Z,54.40
2022-11-05T07:53:10.784Z,56.30
2022-11-05T07:55:41.350Z,61.70
2022-11-05T07:58:11.133Z,58.10
2022-11-05T08:00:39.721Z,72.40
2022-11-05T08:03:13.507Z,72.40
2022-11-05T08:05:47.425Z,64.10
2022-11-05T08:08:39.231Z,65.70
2022-11-05T08:11:10.876Z,60.40
2022-11-05T08:13:39.228Z,56.10
2022-11-05T08:16:08.260Z,55.80
2022-11-05T08:18:36.536Z,53.10
2022-11-05T08:21:05.900Z,50.70
2022-11-05T08:23:34.005Z,54.00
2022-11-05T08:26:04.015Z,44.00
2022-11-05T08:28:32.450Z,48.40
2022-11-05T08:31:00.379Z,45.90
2022-11-05T08:33:31.442Z,45.90
2022-11-05T08:36:02.960Z,43.70
2022-11-05T08:38:31.040Z,41.00
2022-11-05T08:40:59.125Z,40.10
2022-11-05T08:43:28.501Z,35.80
2022-11-05T08:45:57.386Z,41.90
2022-11-05T08:48:25.559Z,36.80
2022-11-05T08:50:53.707Z,42.20
2022-11-05T08:53:21.807Z,43.60
2022-11-05T08:55:51.567Z,38.10
2022-11-05T08:58:20.821Z,36.50
2022-11-05T09:00:50.144Z,35.10
2022-11-05T09:03:19.114Z,38.70
2022-11-05T09:05:47.275Z,32.10
2022-11-05T09:08:18.194Z,32.00
2022-11-05T09:10:47.480Z,32.90
2022-11-05T09:13:19.724Z,35.80
2022-11-05T09:15:51.662Z,31.40
2022-11-05T09:18:20.327Z,29.40
2022-11-05T09:20:48.944Z,30.90
2022-11-05T09:23:17.593Z,32.00
2022-11-05T09:25:46.381Z,32.40
2022-11-05T09:28:18.064Z,29.10
2022-11-05T09:30:48.272Z,34.70
2022-11-05T09:33:18.487Z,28.00
2022-11-05T09:35:46.793Z,31.30
2022-11-05T09:38:15.110Z,30.20
2022-11-05T09:40:55.979Z,37.00
2022-11-05T09:43:31.980Z,37.30
2022-11-05T09:46:08.476Z,38.80
2022-11-05T09:48:39.289Z,40.40
2022-11-05T09:51:07.712Z,40.10
2022-11-05T09:53:40.066Z,38.60
2022-11-05T09:56:20.683Z,45.70
2022-11-05T09:58:54.836Z,45.40
2022-11-05T10:01:31.078Z,42.20
2022-11-05T10:04:02.784Z,38.90
2022-11-05T10:06:31.066Z,34.20
2022-11-05T10:09:15.071Z,34.80
2022-11-05T10:12:15.813Z,35.60
2022-11-05T10:14:50.347Z,37.40
2022-11-05T10:17:24.439Z,40.40
2022-11-05T10:20:23.785Z,41.40
2022-11-05T10:22:58.602Z,37.00
2022-11-05T10:25:32.388Z,38.50
2022-11-05T10:28:01.461Z,32.60
2022-11-05T10:30:29.668Z,42.00
2022-11-05T10:33:01.477Z,41.70
2022-11-05T10:35:33.672Z,38.30
2022-11-05T10:38:02.107Z,33.40
2022-11-05T10:40:41.523Z,37.70
2022-11-05T10:43:18.734Z,39.90
2022-11-05T10:45:58.286Z,37.00
2022-11-05T10:48:35.283Z,36.50
2022-11-05T10:51:07.937Z,33.80
2022-11-05T10:53:39.205Z,48.50
2022-11-05T10:56:32.774Z,41.40
2022-11-05T10:59:06.708Z,36.40
2022-11-05T11:01:37.788Z,33.00
2022-11-05T11:04:17.537Z,31.80
2022-11-05T11:06:52.780Z,35.30
2022-11-05T11:12:01.961Z,33.60
2022-11-05T11:14:31.007Z,27.80
2022-11-05T11:17:24.894Z,29.20
2022-11-05T11:20:11.627Z,27.00
2022-11-05T11:22:39.559Z,32.00
2022-11-05T11:26:00.869Z,34.20
2022-11-05T11:28:34.646Z,32.70
2022-11-05T11:31:12.762Z,29.10
2022-11-05T11:33:46.502Z,26.80
2022-11-05T11:36:19.048Z,29.80
2022-11-05T11:38:47.316Z,30.50
2022-11-05T11:41:29.568Z,34.30
2022-11-05T11:44:08.831Z,36.40
2022-11-05T11:46:37.685Z,32.30
2022-11-05T11:49:07.064Z,35.50
2022-11-05T11:51:49.529Z,30.70
2022-11-05T11:54:20.943Z,36.10
2022-11-05T11:56:57.112Z,33.30
2022-11-05T11:59:47.204Z,36.40
2022-11-05T12:02:58.711Z,30.50
2022-11-05T12:06:08.170Z,35.90
2022-11-05T12:08:45.982Z,31.50
2022-11-05T12:11:15.037Z,37.20
2022-11-05T12:13:57.035Z,35.60
2022-11-05T12:16:50.036Z,35.20
2022-11-05T12:19:34.429Z,35.10
2022-11-05T12:22:33.302Z,29.90
2022-11-05T12:25:14.517Z,41.20
2022-11-05T12:28:22.991Z,31.50
2022-11-05T12:31:27.657Z,33.50
2022-11-05T12:34:04.626Z,27.90
2022-11-05T12:36:38.634Z,27.00
2022-11-05T12:39:37.351Z,26.80
2022-11-05T12:42:32.424Z,22.90
2022-11-05T12:45:07.692Z,25.90
2022-11-05T12:48:35.827Z,28.10
2022-11-05T12:51:13.870Z,29.70
2022-11-05T12:54:20.778Z,29.20
2022-11-05T12:56:56.883Z,28.70
2022-11-05T12:59:34.916Z,29.60
2022-11-05T13:02:27.056Z,34.20
2022-11-05T13:05:01.311Z,28.20
2022-11-05T13:07:40.706Z,29.00
2022-11-05T13:10:18.631Z,26.20
2022-11-05T13:13:00.624Z,27.80
2022-11-05T13:15:37.601Z,31.80
2022-11-05T13:18:14.489Z,26.30
2022-11-05T13:20:50.328Z,29.10
2022-11-05T13:23:41.638Z,31.20
2022-11-05T13:26:59.347Z,30.10
2022-11-05T13:30:02.647Z,31.00
2022-11-05T13:32:43.666Z,32.40
2022-11-05T13:35:26.253Z,31.50
2022-11-05T13:38:17.914Z,30.10
2022-11-05T13:41:01.636Z,32.90
2022-11-05T13:43:50.589Z,36.10
2022-11-05T13:46:40.530Z,33.50
2022-11-05T13:49:27.591Z,40.10
2022-11-05T13:51:55.583Z,36.80
2022-11-05T13:54:41.835Z,49.20
2022-11-05T13:57:16.281Z,35.30
2022-11-05T13:59:51.114Z,40.20
2022-11-05T14:02:23.982Z,40.40
2022-11-05T14:05:00.988Z,39.30
2022-11-05T14:07:44.097Z,41.90
2022-11-05T14:10:26.155Z,40.60
2022-11-05T14:12:56.933Z,41.30
2022-11-05T14:15:29.627Z,38.20
2022-11-05T14:18:31.096Z,36.80
2022-11-05T14:21:01.285Z,40.70
2022-11-05T14:23:41.451Z,37.80
2022-11-05T14:26:16.186Z,35.50
2022-11-05T14:28:47.166Z,40.80
2022-11-05T14:31:18.188Z,40.40
2022-11-05T14:34:01.516Z,38.00
2022-11-05T14:36:36.076Z,42.00
2022-11-05T14:39:19.659Z,45.30
2022-11-05T14:42:04.667Z,40.80
2022-11-05T14:44:35.734Z,42.70
2022-11-05T14:47:08.774Z,38.70
2022-11-05T14:49:47.859Z,37.70
2022-11-05T14:52:19.521Z,37.80
2022-11-05T14:54:50.779Z,36.80
2022-11-05T14:57:43.013Z,39.50
2022-11-05T15:00:29.804Z,37.00
2022-11-05T15:03:01.977Z,39.20
2022-11-05T15:05:48.473Z,44.80
2022-11-05T15:08:31.885Z,44.60
2022-11-05T15:11:12.825Z,44.50
2022-11-05T15:13:51.324Z,53.30
2022-11-05T15:16:42.868Z,48.60
2022-11-05T15:19:21.708Z,44.00
2022-11-05T15:21:51.298Z,49.50
2022-11-05T15:24:20.639Z,44.80
2022-11-05T15:27:27.886Z,50.90
2022-11-05T15:29:55.878Z,56.90
2022-11-05T15:32:26.855Z,45.50
2022-11-05T15:34:56.413Z,49.20
2022-11-05T15:37:27.216Z,50.00
2022-11-05T15:39:55.665Z,57.20
2022-11-05T15:42:25.455Z,47.70
2022-11-05T15:45:00.117Z,44.30
2022-11-05T15:47:30.815Z,52.40
2022-11-05T15:50:15.117Z,47.40
2022-11-05T15:52:51.767Z,47.10
2022-11-05T15:55:25.070Z,48.60
2022-11-05T15:58:00.149Z,49.40
2022-11-05T16:03:04.950Z,49.00
2022-11-05T16:05:35.692Z,49.70
2022-11-05T16:08:05.484Z,52.10
2022-11-05T16:10:38.633Z,49.80
2022-11-05T16:13:38.471Z,64.30
2022-11-05T16:16:24.715Z,58.60
2022-11-05T16:18:52.917Z,57.20
2022-11-05T16:21:23.261Z,53.20
2022-11-05T16:24:00.042Z,57.80
2022-11-05T16:29:29.520Z,58.40
2022-11-05T16:32:06.025Z,53.40
2022-11-05T16:34:49.165Z,60.30
2022-11-05T16:37:20.802Z,60.30
2022-11-05T16:39:49.703Z,54.80
2022-11-05T16:42:24.487Z,90.90
2022-11-05T16:44:58.195Z,78.00
2022-11-05T16:47:26.654Z,64.30
2022-11-05T16:49:55.023Z,60.30
2022-11-05T16:52:23.345Z,68.40
2022-11-05T16:54:51.664Z,59.20
2022-11-05T16:57:29.741Z,64.20
2022-11-05T17:00:00.164Z,53.60
2022-11-05T17:02:28.815Z,52.90
2022-11-05T17:04:57.553Z,59.80
2022-11-05T17:07:25.652Z,59.80
2022-11-05T17:09:55.989Z,54.90
2022-11-05T17:12:24.024Z,52.80
2022-11-05T17:14:52.764Z,52.60
2022-11-05T17:17:22.393Z,48.90
2022-11-05T17:19:50.544Z,49.60
2022-11-05T17:22:18.892Z,51.20
2022-11-05T17:24:47.490Z,52.50
2022-11-05T17:27:15.914Z,53.40
2022-11-05T17:29:43.887Z,51.30
2022-11-05T17:32:13.179Z,54.40
2022-11-05T17:34:42.234Z,58.70
2022-11-05T17:37:10.679Z,54.30
2022-11-05T17:39:38.680Z,56.50
2022-11-05T17:42:06.705Z,48.60
2022-11-05T17:44:40.213Z,55.60
2022-11-05T17:47:09.538Z,50.00
2022-11-05T17:49:37.910Z,47.70
2022-11-05T17:52:05.855Z,52.70
2022-11-05T17:54:33.948Z,47.30
2022-11-05T17:57:08.282Z,53.80
2022-11-05T17:59:36.220Z,44.90
2022-11-05T18:02:04.857Z,43.30
2022-11-05T18:04:33.478Z,50.90
2022-11-05T18:07:01.505Z,52.90
2022-11-05T18:09:29.527Z,46.60
2022-11-05T18:11:57.552Z,47.30
2022-11-05T18:14:25.772Z,51.70
2022-11-05T18:16:56.474Z,54.30
2022-11-05T18:19:24.460Z,57.50
2022-11-05T18:21:52.401Z,53.90
2022-11-05T18:24:23.189Z,59.20
2022-11-05T18:26:51.508Z,62.10
2022-11-05T18:29:20.056Z,63.90
2022-11-05T18:31:48.153Z,72.00
2022-11-05T18:34:17.309Z,73.30
2022-11-05T18:36:53.516Z,76.20
2022-11-05T18:39:26.192Z,75.00
2022-11-05T18:41:54.224Z,71.40
2022-11-05T18:44:23.055Z,75.10
2022-11-05T18:46:58.051Z,75.30
2022-11-05T18:49:27.438Z,71.90
2022-11-05T18:51:55.578Z,73.40
2022-11-05T18:54:23.529Z,76.90
2022-11-05T18:56:51.799Z,74.10
2022-11-05T18:59:38.701Z,79.40
2022-11-05T19:02:11.018Z,66.60
2022-11-05T19:04:50.587Z,77.60
2022-11-05T19:07:29.139Z,71.40
2022-11-05T19:09:57.164Z,66.50
2022-11-05T19:12:25.186Z,72.70
2022-11-05T19:14:56.673Z,68.50
2022-11-05T19:19:56.579Z,73.80
2022-11-05T19:22:26.361Z,73.80
2022-11-05T19:24:54.292Z,69.60
2022-11-05T19:27:23.279Z,75.80
2022-11-05T19:29:51.887Z,76.50
2022-11-05T19:32:21.352Z,79.90
2022-11-05T19:34:49.397Z,75.50
2022-11-05T19:37:17.561Z,77.40
2022-11-05T19:39:45.624Z,80.00
2022-11-05T19:42:13.807Z,78.00
2022-11-05T19:44:43.735Z,79.10
2022-11-05T19:47:11.979Z,84.00
2022-11-05T19:49:40.224Z,90.80
2022-11-05T19:52:08.744Z,92.40
2022-11-05T19:54:38.112Z,92.20
2022-11-05T19:57:06.664Z,86.70
2022-11-05T19:59:34.674Z,91.70
2022-11-05T20:02:02.769Z,85.20
2022-11-05T20:04:31.541Z,79.10
2022-11-05T20:06:59.594Z,76.00
2022-11-05T20:09:27.867Z,83.10
2022-11-05T20:11:56.778Z,82.70
2022-11-05T20:14:26.434Z,87.90
2022-11-05T20:16:54.532Z,80.30
2022-11-05T20:19:23.427Z,85.50
2022-11-05T20:21:52.180Z,86.60
2022-11-05T20:24:25.193Z,72.00
2022-11-05T20:26:56.076Z,58.60
2022-11-05T20:29:30.487Z,68.30
2022-11-05T20:32:04.228Z,58.40
2022-11-05T20:34:34.116Z,59.70
2022-11-05T20:37:02.420Z,58.50
2022-11-05T20:39:33.532Z,64.60
2022-11-05T20:42:01.551Z,62.50
2022-11-05T20:44:29.719Z,62.40
2022-11-05T20:46:57.670Z,66.70
2022-11-05T20:49:26.065Z,64.90
2022-11-05T20:51:55.043Z,63.10
2022-11-05T20:54:23.571Z,61.70
2022-11-05T20:56:55.330Z,60.20
2022-11-05T20:59:24.051Z,63.80
2022-11-05T21:01:52.696Z,66.10
2022-11-05T21:04:21.455Z,68.30
2022-11-05T21:06:49.508Z,74.90
2022-11-05T21:09:18.360Z,75.70
2022-11-05T21:12:05.508Z,82.50
2022-11-05T21:14:35.222Z,75.30
2022-11-05T21:17:04.042Z,78.80
2022-11-05T21:19:33.366Z,72.50
2022-11-05T21:22:02.784Z,72.60
2022-11-05T21:24:32.420Z,73.60
2022-11-05T21:27:00.923Z,69.40
2022-11-05T21:29:29.071Z,72.90
2022-11-05T21:31:57.035Z,76.60
2022-11-05T21:34:25.179Z,72.40
2022-11-05T21:36:53.331Z,85.70
2022-11-05T21:39:21.383Z,77.20
2022-11-05T21:41:49.336Z,83.30
2022-11-05T21:44:17.419Z,77.70
2022-11-05T21:46:45.350Z,78.90
2022-11-05T21:49:14.589Z,77.20
2022-11-05T21:52:00.785Z,76.10
2022-11-05T21:54:48.635Z,81.60
2022-11-05T21:57:37.007Z,83.10
2022-11-05T22:00:11.184Z,82.00
2022-11-05T22:02:39.406Z,89.70
2022-11-05T22:05:08.091Z,91.50
2022-11-05T22:07:38.102Z,93.40
2022-11-05T22:10:14.634Z,82.70
2022-11-05T22:12:44.782Z,84.20
2022-11-05T22:15:13.636Z,89.70
2022-11-05T22:17:46.588Z,92.90
2022-11-05T22:20:16.502Z,84.60
2022-11-05T22:22:44.986Z,86.00
2022-11-05T22:25:13.819Z,94.60
2022-11-05T22:27:43.708Z,90.70
2022-11-05T22:30:13.775Z,92.00
2022-11-05T22:32:41.921Z,92.50
2022-11-05T22:35:10.436Z,97.40
2022-11-05T22:37:38.829Z,97.30
2022-11-05T22:40:08.595Z,106.10
2022-11-05T22:42:36.627Z,102.50
2022-11-05T22:45:05.294Z,91.40
2022-11-05T22:47:33.225Z,97.40
2022-11-05T22:50:01.493Z,83.80
2022-11-05T22:52:29.443Z,85.00
2022-11-05T22:54:57.782Z,81.40
2022-11-05T22:57:25.876Z,82.50
2022-11-05T22:59:53.737Z,85.00
2022-11-05T23:02:21.825Z,76.20
2022-11-05T23:04:51.848Z,77.50
2022-11-05T23:07:38.467Z,82.70
2022-11-05T23:10:25.650Z,83.70
2022-11-05T23:12:55.536Z,78.50
2022-11-05T23:15:42.109Z,80.70
2022-11-05T23:18:28.971Z,71.90
2022-11-05T23:21:17.995Z,76.30
2022-11-05T23:24:05.292Z,72.00
2022-11-05T23:26:50.075Z,75.80
2022-11-05T23:29:23.593Z,77.80
2022-11-05T23:32:10.448Z,81.20
2022-11-05T23:34:38.870Z,78.20
2022-11-05T23:37:26.412Z,80.00
2022-11-05T23:39:55.628Z,71.00
2022-11-05T23:42:42.319Z,75.30
2022-11-05T23:45:29.371Z,69.00
2022-11-05T23:48:16.114Z,66.60
2022-11-05T23:50:57.159Z,70.90
2022-11-05T23:53:26.714Z,79.50
2022-11-05T23:56:03.216Z,75.10
2022-11-05T23:58:31.966Z,71.40
